sensor_id;sensor_type;location;lat;lon;timestamp;pressure;altitude;pressure_sealevel;temperature;humidity
5883;BME280;2967;51.488;6.618;2023-02-08T00:03:50;103640.06;;;2.22;100.00
5883;BME280;2967;51.488;6.618;2023-02-08T00:08:54;103523.31;;;1.55;100.00
5883;BME280;2967;51.488;6.618;2023-02-08T00:13:56;103630.69;;;2.36;100.00
5883;BME280;2967;51.488;6.618;2023-02-08T00:19:00;103635.00;;;2.31;100.00
5883;BME280;2967;51.488;6.618;2023-02-08T00:24:03;103636.63;;;2.26;100.00
5883;BME280;2967;51.488;6.618;2023-02-08T00:29:06;103624.53;;;2.31;100.00
5883;BME280;2967;51.488;6.618;2023-02-08T00:34:10;103624.41;;;2.23;100.00
5883;BME280;2967;51.488;6.618;2023-02-08T00:39:13;103618.97;;;2.08;100.00
5883;BME280;2967;51.488;6.618;2023-02-08T00:44:16;103616.41;;;2.11;100.00
5883;BME280;2967;51.488;6.618;2023-02-08T00:49:20;103611.28;;;2.19;100.00
5883;BME280;2967;51.488;6.618;2023-02-08T00:54:23;103607.94;;;2.27;100.00
5883;BME280;2967;51.488;6.618;2023-02-08T00:59:26;103604.41;;;2.24;100.00
5883;BME280;2967;51.488;6.618;2023-02-08T01:04:30;103600.63;;;2.05;100.00
5883;BME280;2967;51.488;6.618;2023-02-08T01:09:33;103606.72;;;2.03;100.00
5883;BME280;2967;51.488;6.618;2023-02-08T01:14:38;103608.38;;;1.96;100.00
5883;BME280;2967;51.488;6.618;2023-02-08T01:19:42;103608.44;;;2.02;100.00
5883;BME280;2967;51.488;6.618;2023-02-08T01:24:44;103599.88;;;2.12;100.00
5883;BME280;2967;51.488;6.618;2023-02-08T01:29:47;103605.03;;;2.06;100.00
5883;BME280;2967;51.488;6.618;2023-02-08T01:34:51;103601.34;;;1.94;100.00
5883;BME280;2967;51.488;6.618;2023-02-08T01:39:53;103601.44;;;2.00;100.00
5883;BME280;2967;51.488;6.618;2023-02-08T01:45:28;103600.34;;;1.86;100.00
5883;BME280;2967;51.488;6.618;2023-02-08T01:50:39;103588.28;;;1.92;100.00
5883;BME280;2967;51.488;6.618;2023-02-08T01:55:47;103585.44;;;1.77;100.00
5883;BME280;2967;51.488;6.618;2023-02-08T02:06:27;103590.38;;;1.59;100.00
5883;BME280;2967;51.488;6.618;2023-02-08T02:11:31;103596.56;;;1.66;100.00
5883;BME280;2967;51.488;6.618;2023-02-08T02:16:33;103593.47;;;1.37;100.00
5883;BME280;2967;51.488;6.618;2023-02-08T02:21:48;103591.19;;;1.57;100.00
5883;BME280;2967;51.488;6.618;2023-02-08T02:32:53;103581.63;;;1.57;100.00
5883;BME280;2967;51.488;6.618;2023-02-08T02:38:06;103586.75;;;1.51;100.00
5883;BME280;2967;51.488;6.618;2023-02-08T02:43:15;103559.84;;;1.54;100.00
5883;BME280;2967;51.488;6.618;2023-02-08T02:48:41;103580.50;;;1.43;100.00
5883;BME280;2967;51.488;6.618;2023-02-08T02:53:51;103574.44;;;1.43;100.00
5883;BME280;2967;51.488;6.618;2023-02-08T02:59:01;103571.88;;;1.46;100.00
5883;BME280;2967;51.488;6.618;2023-02-08T03:04:13;103573.59;;;1.44;100.00
5883;BME280;2967;51.488;6.618;2023-02-08T03:09:33;103568.16;;;1.32;100.00
5883;BME280;2967;51.488;6.618;2023-02-08T03:14:42;103583.34;;;1.57;100.00
5883;BME280;2967;51.488;6.618;2023-02-08T03:19:59;103583.66;;;1.24;100.00
5883;BME280;2967;51.488;6.618;2023-02-08T03:25:07;103581.81;;;1.17;100.00
5883;BME280;2967;51.488;6.618;2023-02-08T03:30:14;103590.03;;;1.41;100.00
5883;BME280;2967;51.488;6.618;2023-02-08T03:35:22;103577.81;;;1.39;100.00
5883;BME280;2967;51.488;6.618;2023-02-08T03:40:59;103582.38;;;1.50;100.00
5883;BME280;2967;51.488;6.618;2023-02-08T03:46:07;103575.34;;;1.45;100.00
5883;BME280;2967;51.488;6.618;2023-02-08T03:51:14;103586.59;;;1.42;100.00
5883;BME280;2967;51.488;6.618;2023-02-08T03:56:25;103575.22;;;1.37;100.00
5883;BME280;2967;51.488;6.618;2023-02-08T04:01:36;103581.19;;;1.32;100.00
5883;BME280;2967;51.488;6.618;2023-02-08T04:06:44;103581.13;;;1.27;100.00
5883;BME280;2967;51.488;6.618;2023-02-08T04:11:46;103591.34;;;1.17;100.00
5883;BME280;2967;51.488;6.618;2023-02-08T04:16:50;103584.41;;;1.17;100.00
5883;BME280;2967;51.488;6.618;2023-02-08T04:21:54;103586.09;;;1.14;100.00
5883;BME280;2967;51.488;6.618;2023-02-08T04:26:56;103587.13;;;1.23;100.00
5883;BME280;2967;51.488;6.618;2023-02-08T04:31:59;103586.13;;;1.15;100.00
5883;BME280;2967;51.488;6.618;2023-02-08T04:37:03;103585.06;;;1.06;100.00
5883;BME280;2967;51.488;6.618;2023-02-08T04:42:07;103497.44;;;0.65;100.00
5883;BME280;2967;51.488;6.618;2023-02-08T04:47:10;103587.34;;;0.89;100.00
5883;BME280;2967;51.488;6.618;2023-02-08T04:52:14;103589.25;;;0.96;100.00
5883;BME280;2967;51.488;6.618;2023-02-08T04:57:17;103590.09;;;0.97;100.00
5883;BME280;2967;51.488;6.618;2023-02-08T05:02:19;103591.72;;;0.90;100.00
5883;BME280;2967;51.488;6.618;2023-02-08T05:07:23;103596.19;;;0.97;100.00
5883;BME280;2967;51.488;6.618;2023-02-08T05:12:26;103579.75;;;1.01;100.00
5883;BME280;2967;51.488;6.618;2023-02-08T05:17:29;103575.94;;;0.83;100.00
5883;BME280;2967;51.488;6.618;2023-02-08T05:22:33;103574.88;;;0.72;100.00
5883;BME280;2967;51.488;6.618;2023-02-08T05:27:35;103575.25;;;0.48;100.00
5883;BME280;2967;51.488;6.618;2023-02-08T05:32:38;103582.41;;;0.60;100.00
5883;BME280;2967;51.488;6.618;2023-02-08T05:37:42;103578.31;;;0.72;100.00
5883;BME280;2967;51.488;6.618;2023-02-08T05:42:45;103584.34;;;0.70;100.00
5883;BME280;2967;51.488;6.618;2023-02-08T05:47:48;103587.03;;;0.74;100.00
5883;BME280;2967;51.488;6.618;2023-02-08T05:52:52;103587.13;;;0.77;100.00
5883;BME280;2967;51.488;6.618;2023-02-08T05:57:54;103580.03;;;0.70;100.00
5883;BME280;2967;51.488;6.618;2023-02-08T06:02:57;103594.19;;;0.83;100.00
5883;BME280;2967;51.488;6.618;2023-02-08T06:08:01;103588.75;;;0.71;100.00
5883;BME280;2967;51.488;6.618;2023-02-08T06:13:04;103589.56;;;0.70;100.00
5883;BME280;2967;51.488;6.618;2023-02-08T06:18:07;103592.25;;;0.73;100.00
5883;BME280;2967;51.488;6.618;2023-02-08T06:23:11;103590.50;;;0.72;100.00
5883;BME280;2967;51.488;6.618;2023-02-08T06:28:13;103588.69;;;0.69;100.00
5883;BME280;2967;51.488;6.618;2023-02-08T06:33:17;103524.63;;;0.36;100.00
5883;BME280;2967;51.488;6.618;2023-02-08T06:38:21;103577.66;;;0.82;100.00
5883;BME280;2967;51.488;6.618;2023-02-08T06:43:24;103584.03;;;0.98;100.00
5883;BME280;2967;51.488;6.618;2023-02-08T06:48:27;103576.38;;;1.05;100.00
5883;BME280;2967;51.488;6.618;2023-02-08T06:53:31;103570.16;;;0.97;100.00
5883;BME280;2967;51.488;6.618;2023-02-08T06:58:33;103568.63;;;1.10;100.00
5883;BME280;2967;51.488;6.618;2023-02-08T07:03:36;103571.22;;;1.08;100.00
5883;BME280;2967;51.488;6.618;2023-02-08T07:08:40;103564.03;;;0.95;100.00
5883;BME280;2967;51.488;6.618;2023-02-08T07:13:46;103557.03;;;0.94;100.00
5883;BME280;2967;51.488;6.618;2023-02-08T07:18:49;103561.72;;;1.13;100.00
5883;BME280;2967;51.488;6.618;2023-02-08T07:23:53;103565.00;;;1.02;100.00
5883;BME280;2967;51.488;6.618;2023-02-08T07:28:57;103562.41;;;1.03;100.00
5883;BME280;2967;51.488;6.618;2023-02-08T07:34:00;103560.69;;;1.04;100.00
5883;BME280;2967;51.488;6.618;2023-02-08T07:39:04;103550.22;;;1.01;100.00
5883;BME280;2967;51.488;6.618;2023-02-08T07:44:06;103548.53;;;1.04;100.00
5883;BME280;2967;51.488;6.618;2023-02-08T07:49:09;103551.91;;;0.97;100.00
5883;BME280;2967;51.488;6.618;2023-02-08T07:54:13;103548.31;;;0.92;100.00
5883;BME280;2967;51.488;6.618;2023-02-08T07:59:16;103548.16;;;0.83;100.00
5883;BME280;2967;51.488;6.618;2023-02-08T08:04:18;103548.22;;;0.86;100.00
5883;BME280;2967;51.488;6.618;2023-02-08T08:09:24;103559.06;;;0.64;100.00
5883;BME280;2967;51.488;6.618;2023-02-08T08:14:26;103557.72;;;0.83;100.00
5883;BME280;2967;51.488;6.618;2023-02-08T08:19:29;103554.06;;;1.22;100.00
5883;BME280;2967;51.488;6.618;2023-02-08T08:24:34;103552.44;;;1.27;100.00
5883;BME280;2967;51.488;6.618;2023-02-08T08:29:37;103535.25;;;1.38;100.00
5883;BME280;2967;51.488;6.618;2023-02-08T08:34:40;103542.66;;;1.66;100.00
5883;BME280;2967;51.488;6.618;2023-02-08T08:39:44;103536.03;;;1.89;100.00
5883;BME280;2967;51.488;6.618;2023-02-08T08:44:46;103534.44;;;2.00;100.00
5883;BME280;2967;51.488;6.618;2023-02-08T08:49:49;103533.88;;;2.21;100.00
5883;BME280;2967;51.488;6.618;2023-02-08T08:54:53;103530.56;;;2.37;100.00
5883;BME280;2967;51.488;6.618;2023-02-08T08:59:56;103546.38;;;2.48;99.27
5883;BME280;2967;51.488;6.618;2023-02-08T09:04:59;103542.19;;;2.61;95.43
5883;BME280;2967;51.488;6.618;2023-02-08T09:10:06;103548.59;;;2.88;91.11
5883;BME280;2967;51.488;6.618;2023-02-08T09:15:09;103540.09;;;3.06;89.04
5883;BME280;2967;51.488;6.618;2023-02-08T09:20:12;103535.91;;;3.26;88.03
5883;BME280;2967;51.488;6.618;2023-02-08T09:25:16;103543.03;;;3.45;84.12
5883;BME280;2967;51.488;6.618;2023-02-08T09:30:18;103541.41;;;3.56;81.17
5883;BME280;2967;51.488;6.618;2023-02-08T09:35:21;103534.56;;;3.76;80.37
5883;BME280;2967;51.488;6.618;2023-02-08T09:40:27;103546.84;;;3.87;79.06
5883;BME280;2967;51.488;6.618;2023-02-08T09:45:49;103545.19;;;4.00;78.47
5883;BME280;2967;51.488;6.618;2023-02-08T09:51:05;103553.97;;;4.14;78.13
5883;BME280;2967;51.488;6.618;2023-02-08T09:56:15;103543.56;;;4.23;79.14
5883;BME280;2967;51.488;6.618;2023-02-08T10:01:21;103488.41;;;3.94;76.13
5883;BME280;2967;51.488;6.618;2023-02-08T10:06:25;103551.47;;;4.39;75.66
5883;BME280;2967;51.488;6.618;2023-02-08T10:11:43;103557.69;;;4.58;75.06
5883;BME280;2967;51.488;6.618;2023-02-08T10:17:03;103562.94;;;4.64;74.71
5883;BME280;2967;51.488;6.618;2023-02-08T10:22:21;103562.97;;;4.70;74.71
5883;BME280;2967;51.488;6.618;2023-02-08T10:27:36;103561.25;;;4.78;73.87
5883;BME280;2967;51.488;6.618;2023-02-08T10:32:48;103556.00;;;4.84;74.71
5883;BME280;2967;51.488;6.618;2023-02-08T10:37:51;103548.19;;;5.00;71.81
5883;BME280;2967;51.488;6.618;2023-02-08T10:43:04;103552.59;;;5.08;69.90
5883;BME280;2967;51.488;6.618;2023-02-08T10:48:15;103532.47;;;5.09;68.75
5883;BME280;2967;51.488;6.618;2023-02-08T10:53:19;103545.59;;;5.15;69.53
5883;BME280;2967;51.488;6.618;2023-02-08T10:58:24;103543.84;;;5.20;67.83
5883;BME280;2967;51.488;6.618;2023-02-08T11:03:28;103528.09;;;5.26;66.73
5883;BME280;2967;51.488;6.618;2023-02-08T11:08:31;103519.34;;;5.34;68.22
5883;BME280;2967;51.488;6.618;2023-02-08T11:13:38;103522.88;;;5.48;65.30
5883;BME280;2967;51.488;6.618;2023-02-08T11:18:47;103524.59;;;5.55;65.13
5883;BME280;2967;51.488;6.618;2023-02-08T11:23:52;103508.84;;;5.52;63.78
5883;BME280;2967;51.488;6.618;2023-02-08T11:29:01;103474.72;;;5.48;64.50
5883;BME280;2967;51.488;6.618;2023-02-08T11:34:07;103492.19;;;5.88;63.67
5883;BME280;2967;51.488;6.618;2023-02-08T11:39:16;103495.69;;;6.02;61.87
5883;BME280;2967;51.488;6.618;2023-02-08T11:44:22;103487.75;;;6.08;61.60
5883;BME280;2967;51.488;6.618;2023-02-08T11:49:31;103481.59;;;6.15;59.99
5883;BME280;2967;51.488;6.618;2023-02-08T11:54:39;103489.41;;;6.31;56.26
5883;BME280;2967;51.488;6.618;2023-02-08T11:59:48;103477.09;;;6.44;52.55
5883;BME280;2967;51.488;6.618;2023-02-08T12:04:51;103459.44;;;6.61;51.89
5883;BME280;2967;51.488;6.618;2023-02-08T12:10:15;103464.53;;;6.86;51.55
5883;BME280;2967;51.488;6.618;2023-02-08T12:15:27;103450.09;;;7.37;72.22
5883;BME280;2967;51.488;6.618;2023-02-08T12:20:41;103442.81;;;7.61;40.99
5883;BME280;2967;51.488;6.618;2023-02-08T12:25:50;103437.34;;;7.79;40.45
5883;BME280;2967;51.488;6.618;2023-02-08T12:31:01;103443.47;;;7.82;37.46
5883;BME280;2967;51.488;6.618;2023-02-08T12:36:18;103438.00;;;7.96;38.12
5883;BME280;2967;51.488;6.618;2023-02-08T12:41:29;103426.47;;;8.06;39.14
5883;BME280;2967;51.488;6.618;2023-02-08T12:46:48;103428.28;;;8.01;40.25
5883;BME280;2967;51.488;6.618;2023-02-08T12:52:00;103416.91;;;7.96;38.91
5883;BME280;2967;51.488;6.618;2023-02-08T12:57:10;103414.28;;;7.96;38.65
5883;BME280;2967;51.488;6.618;2023-02-08T13:02:18;103411.59;;;8.00;39.16
5883;BME280;2967;51.488;6.618;2023-02-08T13:07:25;103370.53;;;7.83;37.98
5883;BME280;2967;51.488;6.618;2023-02-08T13:12:31;103353.88;;;7.81;37.78
5883;BME280;2967;51.488;6.618;2023-02-08T13:17:43;103372.94;;;8.02;45.62
5883;BME280;2967;51.488;6.618;2023-02-08T13:22:47;103365.19;;;7.89;36.85
5883;BME280;2967;51.488;6.618;2023-02-08T13:27:52;103356.19;;;8.05;38.44
5883;BME280;2967;51.488;6.618;2023-02-08T13:32:56;103348.09;;;8.20;37.09
5883;BME280;2967;51.488;6.618;2023-02-08T13:38:02;103237.88;;;7.87;36.92
5883;BME280;2967;51.488;6.618;2023-02-08T13:43:07;103331.31;;;8.78;35.72
5883;BME280;2967;51.488;6.618;2023-02-08T13:48:45;103323.50;;;9.22;36.97
5883;BME280;2967;51.488;6.618;2023-02-08T13:54:08;103320.63;;;9.34;36.53
5883;BME280;2967;51.488;6.618;2023-02-08T13:59:30;103312.13;;;9.61;37.21
5883;BME280;2967;51.488;6.618;2023-02-08T14:04:37;103302.16;;;9.74;35.94
5883;BME280;2967;51.488;6.618;2023-02-08T14:09:45;103296.75;;;9.80;35.07
5883;BME280;2967;51.488;6.618;2023-02-08T14:15:24;103238.66;;;9.37;35.74
5883;BME280;2967;51.488;6.618;2023-02-08T14:20:34;103282.59;;;9.41;35.70
5883;BME280;2967;51.488;6.618;2023-02-08T14:25:42;103278.56;;;9.24;35.15
5883;BME280;2967;51.488;6.618;2023-02-08T14:30:49;103273.78;;;8.97;36.70
5883;BME280;2967;51.488;6.618;2023-02-08T14:41:46;103263.09;;;8.56;38.58
5883;BME280;2967;51.488;6.618;2023-02-08T14:46:49;103243.19;;;8.40;39.65
5883;BME280;2967;51.488;6.618;2023-02-08T14:51:55;103204.25;;;8.01;40.59
5883;BME280;2967;51.488;6.618;2023-02-08T14:57:03;103236.63;;;8.09;40.04
5883;BME280;2967;51.488;6.618;2023-02-08T15:02:11;103239.38;;;8.01;40.45
5883;BME280;2967;51.488;6.618;2023-02-08T15:07:23;103237.69;;;7.97;41.24
5883;BME280;2967;51.488;6.618;2023-02-08T15:12:32;103215.81;;;7.91;40.98
5883;BME280;2967;51.488;6.618;2023-02-08T15:17:39;103224.69;;;7.87;42.26
5883;BME280;2967;51.488;6.618;2023-02-08T15:22:42;103214.22;;;7.81;43.60
5883;BME280;2967;51.488;6.618;2023-02-08T15:27:47;103203.75;;;7.75;44.00
5883;BME280;2967;51.488;6.618;2023-02-08T15:32:51;103202.13;;;7.68;41.07
5883;BME280;2967;51.488;6.618;2023-02-08T15:37:54;103214.41;;;7.69;41.97
5883;BME280;2967;51.488;6.618;2023-02-08T15:43:03;103170.78;;;7.50;42.35
5883;BME280;2967;51.488;6.618;2023-02-08T15:48:11;103210.78;;;7.76;40.79
5883;BME280;2967;51.488;6.618;2023-02-08T15:53:14;103194.25;;;7.67;42.44
5883;BME280;2967;51.488;6.618;2023-02-08T15:58:27;103197.84;;;7.63;43.28
5883;BME280;2967;51.488;6.618;2023-02-08T16:03:32;103180.34;;;7.57;44.97
5883;BME280;2967;51.488;6.618;2023-02-08T16:08:38;103178.69;;;7.49;47.12
5883;BME280;2967;51.488;6.618;2023-02-08T16:13:47;103169.19;;;7.39;48.58
5883;BME280;2967;51.488;6.618;2023-02-08T16:18:58;103161.41;;;7.31;48.74
5883;BME280;2967;51.488;6.618;2023-02-08T16:24:05;103153.63;;;7.24;47.22
5883;BME280;2967;51.488;6.618;2023-02-08T16:29:17;103112.03;;;6.83;49.12
5883;BME280;2967;51.488;6.618;2023-02-08T16:34:21;103162.75;;;6.94;48.95
5883;BME280;2967;51.488;6.618;2023-02-08T16:39:51;103154.16;;;6.80;50.95
5883;BME280;2967;51.488;6.618;2023-02-08T16:45:13;103116.78;;;6.54;49.00
5883;BME280;2967;51.488;6.618;2023-02-08T16:50:17;103136.69;;;6.75;51.38
5883;BME280;2967;51.488;6.618;2023-02-08T16:55:23;103135.97;;;6.61;51.08
5883;BME280;2967;51.488;6.618;2023-02-08T17:00:30;103131.84;;;6.42;53.63
5883;BME280;2967;51.488;6.618;2023-02-08T17:05:35;103130.19;;;6.30;53.92
5883;BME280;2967;51.488;6.618;2023-02-08T17:10:38;103126.63;;;6.36;52.93
5883;BME280;2967;51.488;6.618;2023-02-08T17:15:43;103125.03;;;6.21;54.03
5883;BME280;2967;51.488;6.618;2023-02-08T17:20:46;103116.34;;;6.15;56.77
5883;BME280;2967;51.488;6.618;2023-02-08T17:25:51;103104.38;;;5.78;59.24
5883;BME280;2967;51.488;6.618;2023-02-08T17:30:55;103101.03;;;5.59;60.23
5883;BME280;2967;51.488;6.618;2023-02-08T17:35:58;103047.97;;;5.17;61.29
5883;BME280;2967;51.488;6.618;2023-02-08T17:41:01;103086.44;;;5.19;62.93
5883;BME280;2967;51.488;6.618;2023-02-08T17:46:10;103096.84;;;5.30;64.25
5883;BME280;2967;51.488;6.618;2023-02-08T17:51:15;103084.69;;;5.17;64.57
5883;BME280;2967;51.488;6.618;2023-02-08T17:56:20;103082.09;;;5.14;63.56
5883;BME280;2967;51.488;6.618;2023-02-08T18:01:25;103075.25;;;4.85;62.38
5883;BME280;2967;51.488;6.618;2023-02-08T18:06:28;103062.19;;;4.82;64.25
5883;BME280;2967;51.488;6.618;2023-02-08T18:11:31;103076.97;;;4.90;64.94
5883;BME280;2967;51.488;6.618;2023-02-08T18:16:35;103080.50;;;4.85;67.59
5883;BME280;2967;51.488;6.618;2023-02-08T18:21:38;103074.38;;;4.87;66.86
5883;BME280;2967;51.488;6.618;2023-02-08T18:26:40;103077.19;;;4.50;69.36
5883;BME280;2967;51.488;6.618;2023-02-08T18:31:44;103077.22;;;4.42;69.82
5883;BME280;2967;51.488;6.618;2023-02-08T18:36:49;103037.13;;;4.18;70.24
5883;BME280;2967;51.488;6.618;2023-02-08T18:41:52;103071.97;;;4.30;73.84
5883;BME280;2967;51.488;6.618;2023-02-08T18:46:56;103078.19;;;3.92;77.46
5883;BME280;2967;51.488;6.618;2023-02-08T18:51:59;103068.53;;;4.19;76.51
5883;BME280;2967;51.488;6.618;2023-02-08T18:57:03;103067.66;;;4.23;72.87
5883;BME280;2967;51.488;6.618;2023-02-08T19:02:18;103065.03;;;4.22;76.19
5883;BME280;2967;51.488;6.618;2023-02-08T19:07:24;103064.19;;;4.17;72.60
5883;BME280;2967;51.488;6.618;2023-02-08T19:12:27;103077.22;;;4.26;72.60
5883;BME280;2967;51.488;6.618;2023-02-08T19:17:31;103062.38;;;4.37;66.25
5883;BME280;2967;51.488;6.618;2023-02-08T19:22:35;103068.44;;;4.45;66.08
5883;BME280;2967;51.488;6.618;2023-02-08T19:27:37;103077.19;;;4.45;65.10
5883;BME280;2967;51.488;6.618;2023-02-08T19:32:41;103067.59;;;4.44;61.01
5883;BME280;2967;51.488;6.618;2023-02-08T19:37:44;103063.19;;;4.52;61.24
5883;BME280;2967;51.488;6.618;2023-02-08T19:42:51;103053.63;;;4.47;60.85
5883;BME280;2967;51.488;6.618;2023-02-08T19:47:56;103059.72;;;4.49;61.59
5883;BME280;2967;51.488;6.618;2023-02-08T19:53:01;103068.47;;;4.40;61.66
5883;BME280;2967;51.488;6.618;2023-02-08T19:58:03;103065.84;;;4.36;62.13
5883;BME280;2967;51.488;6.618;2023-02-08T20:03:07;103072.81;;;4.47;61.74
5883;BME280;2967;51.488;6.618;2023-02-08T20:08:22;103072.81;;;4.49;62.65
5883;BME280;2967;51.488;6.618;2023-02-08T20:13:28;103072.91;;;4.14;65.20
5883;BME280;2967;51.488;6.618;2023-02-08T20:18:31;103075.53;;;4.14;65.68
5883;BME280;2967;51.488;6.618;2023-02-08T20:23:35;103073.81;;;4.00;63.70
5883;BME280;2967;51.488;6.618;2023-02-08T20:28:40;103081.66;;;4.04;62.82
5883;BME280;2967;51.488;6.618;2023-02-08T20:33:46;103083.38;;;4.16;64.41
5883;BME280;2967;51.488;6.618;2023-02-08T20:38:52;103073.78;;;4.15;68.27
5883;BME280;2967;51.488;6.618;2023-02-08T20:43:55;103055.47;;;4.06;66.31
5883;BME280;2967;51.488;6.618;2023-02-08T20:49:01;103081.66;;;4.06;64.72
5883;BME280;2967;51.488;6.618;2023-02-08T20:54:04;103081.66;;;4.06;65.08
5883;BME280;2967;51.488;6.618;2023-02-08T20:59:15;103080.78;;;3.95;64.29
5883;BME280;2967;51.488;6.618;2023-02-08T21:04:19;103084.25;;;4.06;63.72
5883;BME280;2967;51.488;6.618;2023-02-08T21:09:24;103072.97;;;3.87;64.02
5883;BME280;2967;51.488;6.618;2023-02-08T21:14:27;103094.75;;;4.09;64.13
5883;BME280;2967;51.488;6.618;2023-02-08T21:19:31;103086.88;;;4.10;63.21
5883;BME280;2967;51.488;6.618;2023-02-08T21:24:34;103086.06;;;3.89;65.32
5883;BME280;2967;51.488;6.618;2023-02-08T21:29:36;103085.16;;;4.03;63.39
5883;BME280;2967;51.488;6.618;2023-02-08T21:34:41;103080.78;;;3.95;64.45
5883;BME280;2967;51.488;6.618;2023-02-08T21:39:43;103072.94;;;3.86;63.68
5883;BME280;2967;51.488;6.618;2023-02-08T21:44:47;103078.22;;;3.81;64.35
5883;BME280;2967;51.488;6.618;2023-02-08T21:49:51;103067.75;;;3.80;64.05
5883;BME280;2967;51.488;6.618;2023-02-08T21:55:11;103058.13;;;3.79;64.03
5883;BME280;2967;51.488;6.618;2023-02-08T22:00:14;102931.72;;;3.05;64.45
5883;BME280;2967;51.488;6.618;2023-02-08T22:05:18;103044.19;;;3.72;64.45
5883;BME280;2967;51.488;6.618;2023-02-08T22:10:24;103038.97;;;3.77;64.56
5883;BME280;2967;51.488;6.618;2023-02-08T22:15:28;103038.06;;;3.84;64.24
5883;BME280;2967;51.488;6.618;2023-02-08T22:20:32;103032.81;;;3.84;63.76
5883;BME280;2967;51.488;6.618;2023-02-08T22:25:34;103032.81;;;3.84;64.13
5883;BME280;2967;51.488;6.618;2023-02-08T22:30:37;103020.59;;;3.78;63.95
5883;BME280;2967;51.488;6.618;2023-02-08T22:35:41;103021.50;;;3.76;65.48
5883;BME280;2967;51.488;6.618;2023-02-08T22:40:44;103011.94;;;3.66;65.43
5883;BME280;2967;51.488;6.618;2023-02-08T22:45:55;103014.53;;;3.72;64.50
5883;BME280;2967;51.488;6.618;2023-02-08T22:51:04;103003.13;;;3.85;65.10
5883;BME280;2967;51.488;6.618;2023-02-08T22:56:07;103000.50;;;3.89;64.79
5883;BME280;2967;51.488;6.618;2023-02-08T23:01:10;102997.03;;;3.89;63.94
5883;BME280;2967;51.488;6.618;2023-02-08T23:06:15;102993.53;;;3.93;63.95
5883;BME280;2967;51.488;6.618;2023-02-08T23:11:18;102990.97;;;3.82;63.99
5883;BME280;2967;51.488;6.618;2023-02-08T23:16:23;103001.41;;;3.87;64.36
5883;BME280;2967;51.488;6.618;2023-02-08T23:21:27;102994.41;;;3.86;64.29
5883;BME280;2967;51.488;6.618;2023-02-08T23:26:30;102999.69;;;3.77;63.75
5883;BME280;2967;51.488;6.618;2023-02-08T23:31:32;102991.81;;;3.83;64.10
5883;BME280;2967;51.488;6.618;2023-02-08T23:36:37;102982.22;;;3.77;63.63
5883;BME280;2967;51.488;6.618;2023-02-08T23:41:40;102970.03;;;3.72;63.46
5883;BME280;2967;51.488;6.618;2023-02-08T23:46:42;102969.19;;;3.61;63.15
5883;BME280;2967;51.488;6.618;2023-02-08T23:51:46;102976.16;;;3.54;64.30
5883;BME280;2967;51.488;6.618;2023-02-08T23:56:49;102974.41;;;3.56;63.35
